Terminal Aerodrome Forecast
Issued by NWS

Home | Current Version | Previous Version | Text Only | Print | Product List | Glossary On
Versions: 1 2 3 4 5 6 7 8 9 10 11 12
739
FTUS44 KEPZ 270535
TAFDMN
TAF
KDMN 270535Z 2706/2806 28015KT P6SM SCT250
     FM271800 27025G42KT 5SM BLDU BKN200
     FM272000 27028G45KT 3SM BLDU BKN200
      TEMPO 2720/2724 28030G48KT 1SM BLDU=

USA.gov is the U.S. government's official web portal to all federal, state and local government web resources and services.